Date,TemperatureHighF,TemperatureAvgF,TemperatureLowF,DewpointHighF,DewpointAvgF,DewpointLowF,HumidityHigh,HumidityAvg,HumidityLow,PressureMaxIn,PressureMinIn,WindSpeedMaxMPH,WindSpeedAvgMPH,GustSpeedMaxMPH,PrecipitationSumIn
2013-12-1,72,63,57,-100,-100,-100,0,0,100,0.00,40.00,0,-999,0,0.00
2013-12-2,80,67,59,-100,-100,-100,0,0,100,0.00,40.00,0,-999,0,0.00
2013-12-3,83,68,60,-100,-100,-100,0,0,100,0.00,40.00,0,-999,0,0.00
2013-12-4,80,73,69,-100,-100,-100,0,0,100,0.00,40.00,0,-999,0,0.00
2013-12-5,77,64,41,-100,-100,-100,0,0,100,0.00,40.00,0,-999,0,0.00
2013-12-6,43,42,36,-100,-100,-100,0,0,100,0.00,40.00,0,-999,0,0.00
2013-12-7,38,36,35,-100,-100,-100,0,0,100,0.00,40.00,0,-999,0,0.00
2013-12-8,45,40,37,-100,-100,-100,0,0,100,0.00,40.00,0,-999,0,0.00
2013-12-9,45,43,41,-100,-100,-100,0,0,100,0.00,40.00,0,-999,0,0.00
2013-12-10,47,39,32,-100,-100,-100,0,0,100,0.00,40.00,0,-999,0,0.00
2013-12-11,55,42,32,-100,-100,-100,0,0,100,0.00,40.00,0,-999,0,0.00
2013-12-12,53,43,36,-100,-100,-100,0,0,100,0.00,40.00,0,-999,0,0.00
2013-12-13,56,49,40,-100,-100,-100,0,0,100,0.00,40.00,0,-999,0,0.00
2013-12-14,55,50,43,-100,-100,-100,0,0,100,0.00,40.00,0,-999,0,0.00
2013-12-15,57,40,32,-100,-100,-100,0,0,100,0.00,40.00,0,-999,0,0.00
2013-12-16,65,41,31,-100,-100,-100,0,0,100,0.00,40.00,0,-999,0,0.00
2013-12-17,72,51,35,-100,-100,-100,0,0,100,0.00,40.00,0,-999,0,0.00
2013-12-18,74,56,39,-100,-100,-100,0,0,100,0.00,40.00,0,-999,0,0.00
2013-12-19,76,68,56,-100,-100,-100,0,0,100,0.00,40.00,0,-999,0,0.00
2013-12-20,80,75,73,-100,-100,-100,0,0,100,0.00,40.00,0,-999,0,0.00
2013-12-21,77,71,60,-100,-100,-100,0,0,100,0.00,40.00,0,-999,0,0.00
2013-12-22,61,53,40,-100,-100,-100,0,0,100,0.00,40.00,0,-999,0,0.00
2013-12-23,52,40,34,-100,-100,-100,0,0,100,0.00,40.00,0,-999,0,0.00
2013-12-24,57,40,29,-100,-100,-100,0,0,100,0.00,40.00,0,-999,0,0.00
2013-12-25,64,45,30,-100,-100,-100,0,0,100,0.00,40.00,0,-999,0,0.00
2013-12-26,64,51,41,-100,-100,-100,0,0,100,0.00,40.00,0,-999,0,0.00
2013-12-27,59,50,43,-100,-100,-100,0,0,100,0.00,40.00,0,-999,0,0.00
2013-12-28,61,52,44,-100,-100,-100,0,0,100,0.00,40.00,0,-999,0,0.00
2013-12-29,69,47,37,-100,-100,-100,0,0,100,0.00,40.00,0,-999,0,0.00
2013-12-30,47,43,40,-100,-100,-100,0,0,100,0.00,40.00,0,-999,0,0.00
2013-12-31,50,45,39,-100,-100,-100,0,0,100,0.00,40.00,0,-999,0,0.00